Time;durP1;ratioP1;P1;durP2;ratioP2;P2;SDS_P1;SDS_P2;PMS_P1;PMS_P2;Temp;Humidity;BMP_temperature;BMP_pressure;BME280_temperature;BME280_humidity;BME280_pressure;Samples;Min_cycle;Max_cycle;Signal;HPM_P1;HPM_P2
2024/01/02 00:03:52;;;;;;;6.68;1.75;;;;;;;4.31;100.00;97727.34;15279251;19;20015;-54
2024/01/02 00:09:18;;;;;;;8.38;1.80;;;;;;;4.32;100.00;97724.53;15276316;19;20019;-57
2024/01/02 00:14:45;;;;;;;8.07;1.60;;;;;;;4.35;100.00;97717.22;15269163;19;20026;-53
2024/01/02 00:20:13;;;;;;;7.93;1.80;;;;;;;4.37;100.00;97693.94;15275205;19;20018;-56
2024/01/02 00:25:37;;;;;;;7.85;1.75;;;;;;;4.39;100.00;97686.66;15270717;19;20017;-57
2024/01/02 00:31:04;;;;;;;8.75;1.75;;;;;;;4.39;100.00;97691.97;15274236;19;20022;-55
2024/01/02 00:36:29;;;;;;;7.18;1.63;;;;;;;4.40;100.00;97685.66;15280175;19;20586;-55
2024/01/02 00:42:00;;;;;;;7.32;1.70;;;;;;;4.40;100.00;97677.66;15277347;19;20351;-56
2024/01/02 00:47:31;;;;;;;7.22;1.80;;;;;;;4.42;100.00;97681.00;15277202;19;20014;-52
2024/01/02 00:52:55;;;;;;;10.90;1.88;;;;;;;4.41;100.00;97664.19;15265455;19;20014;-55
2024/01/02 00:58:20;;;;;;;9.85;1.67;;;;;;;4.43;100.00;97666.69;15269545;19;20071;-57
2024/01/02 01:03:47;;;;;;;7.38;1.77;;;;;;;4.44;100.00;97655.03;15020784;19;5001164;-54
2024/01/02 01:09:12;;;;;;;8.95;1.90;;;;;;;4.45;100.00;97654.06;15271066;19;20015;-56
2024/01/02 01:14:36;;;;;;;7.60;1.55;;;;;;;4.46;100.00;97653.09;15263970;19;20103;-55
2024/01/02 01:20:04;;;;;;;10.68;2.13;;;;;;;4.45;100.00;97646.06;15271611;19;20068;-55
2024/01/02 01:25:28;;;;;;;7.63;1.80;;;;;;;4.46;100.00;97648.59;15262521;19;20114;-54
2024/01/02 01:30:53;;;;;;;6.78;1.70;;;;;;;4.50;100.00;97643.81;15268347;19;20014;-56
2024/01/02 01:36:22;;;;;;;7.38;1.90;;;;;;;4.54;100.00;97642.53;15276265;19;20022;-55
2024/01/02 01:41:47;;;;;;;5.90;1.27;;;;;;;4.57;100.00;97631.59;15272844;19;20383;-55
2024/01/02 01:47:12;;;;;;;4.68;1.27;;;;;;;4.57;100.00;97618.25;15273389;19;20044;-54
2024/01/02 01:52:42;;;;;;;6.95;1.48;;;;;;;4.61;100.00;97600.97;15271930;19;20025;-56
2024/01/02 01:58:07;;;;;;;4.57;1.15;;;;;;;4.62;100.00;97602.66;15265474;19;20014;-56
2024/01/02 02:03:33;;;;;;;3.70;1.23;;;;;;;4.66;100.00;97599.69;15280904;19;20014;-56
2024/01/02 02:09:00;;;;;;;5.55;1.50;;;;;;;4.68;100.00;97595.06;15279440;19;20018;-55
2024/01/02 02:14:26;;;;;;;6.38;1.60;;;;;;;4.67;100.00;97580.88;15277852;19;20018;-53
2024/01/02 02:19:50;;;;;;;7.32;1.70;;;;;;;4.67;100.00;97577.38;15282695;19;20767;-56
2024/01/02 02:25:18;;;;;;;6.25;1.50;;;;;;;4.69;100.00;97567.41;15276948;19;20399;-54
2024/01/02 02:30:44;;;;;;;4.32;1.45;;;;;;;4.70;100.00;97558.41;15281066;19;20033;-56
2024/01/02 02:36:09;;;;;;;7.50;1.58;;;;;;;4.70;100.00;97555.75;15277526;19;20025;-54
2024/01/02 02:41:36;;;;;;;6.13;1.77;;;;;;;4.71;100.00;97541.41;15283175;19;20527;-52
2024/01/02 02:47:01;;;;;;;5.53;1.45;;;;;;;4.69;100.00;97536.22;15284382;19;20021;-57
2024/01/02 02:52:25;;;;;;;5.88;1.20;;;;;;;4.70;100.00;97529.06;15283010;19;20014;-57
2024/01/02 02:57:53;;;;;;;3.28;1.00;;;;;;;4.68;100.00;97515.88;15277148;19;20018;-55
2024/01/02 03:03:17;;;;;;;3.83;1.00;;;;;;;4.68;100.00;97501.69;15273908;19;20464;-55
2024/01/02 03:08:42;;;;;;;3.67;0.98;;;;;;;4.68;100.00;97483.88;15280240;19;20493;-54
2024/01/02 03:14:09;;;;;;;4.20;0.90;;;;;;;4.70;100.00;97465.03;15276325;19;20021;-56
2024/01/02 03:19:35;;;;;;;3.00;0.98;;;;;;;4.71;100.00;97456.03;15280950;19;20658;-55
2024/01/02 03:24:59;;;;;;;3.30;0.90;;;;;;;4.71;100.00;97440.03;15283929;19;20006;-55
2024/01/02 03:30:27;;;;;;;3.13;0.88;;;;;;;4.70;100.00;97415.19;15276938;19;20679;-57
2024/01/02 03:35:53;;;;;;;3.85;1.00;;;;;;;4.74;100.00;97410.38;15277020;19;20018;-53
2024/01/02 03:41:18;;;;;;;3.72;1.10;;;;;;;4.71;100.00;97400.00;15273079;19;20014;-63
2024/01/02 03:46:45;;;;;;;5.05;1.10;;;;;;;4.66;100.00;97373.78;15272585;19;20015;-64
2024/01/02 03:52:10;;;;;;;2.85;0.88;;;;;;;4.62;100.00;97354.56;15280558;19;20014;-64
2024/01/02 03:57:35;;;;;;;3.53;1.40;;;;;;;4.61;100.00;97336.88;15280026;19;20018;-63
2024/01/02 04:03:04;;;;;;;4.13;1.50;;;;;;;4.61;100.00;97323.56;15265924;19;20025;-63
2024/01/02 04:08:31;;;;;;;2.00;1.10;;;;;;;4.62;100.00;97324.38;15269337;19;20487;-64
2024/01/02 04:13:56;;;;;;;2.17;0.90;;;;;;;4.62;100.00;97303.88;15271299;19;20614;-65
2024/01/02 04:19:24;;;;;;;2.75;0.88;;;;;;;4.61;100.00;97291.53;15270337;19;20019;-63
2024/01/02 04:24:50;;;;;;;1.55;0.80;;;;;;;4.63;100.00;97281.56;15276229;19;20011;-63
2024/01/02 04:30:16;;;;;;;2.42;0.80;;;;;;;4.65;100.00;97275.22;15272208;19;20019;-64
2024/01/02 04:35:44;;;;;;;2.63;0.80;;;;;;;4.65;100.00;97259.19;14767257;19;10000666;-60
2024/01/02 04:41:11;;;;;;;3.38;0.88;;;;;;;4.66;100.00;97260.88;15274078;19;20598;-63
2024/01/02 04:46:36;;;;;;;2.08;0.80;;;;;;;4.67;100.00;97255.41;15278250;19;20025;-65
2024/01/02 04:52:03;;;;;;;5.93;1.10;;;;;;;4.68;100.00;97229.56;15279217;19;20025;-64
2024/01/02 04:57:28;;;;;;;3.78;1.00;;;;;;;4.68;100.00;97210.88;15271966;19;20018;-63
2024/01/02 05:02:52;;;;;;;3.28;1.00;;;;;;;4.65;100.00;97201.38;15265601;19;20018;-62
2024/01/02 05:08:20;;;;;;;2.55;0.90;;;;;;;4.65;100.00;97189.84;15268505;19;20025;-64
2024/01/02 05:13:45;;;;;;;3.15;0.98;;;;;;;4.65;100.00;97184.50;15267613;19;20021;-64
2024/01/02 05:19:10;;;;;;;4.05;1.00;;;;;;;4.61;100.00;97179.50;15270234;19;20624;-64
2024/01/02 05:24:37;;;;;;;3.38;0.90;;;;;;;4.57;100.00;97170.13;15276834;19;20019;-64
2024/01/02 05:30:02;;;;;;;3.63;0.93;;;;;;;4.57;100.00;97175.47;15271523;19;20048;-64
2024/01/02 05:35:26;;;;;;;4.70;1.20;;;;;;;4.53;100.00;97170.59;15274432;19;20029;-64
2024/01/02 05:41:00;;;;;;;3.15;0.70;;;;;;;4.53;100.00;97150.09;15285932;19;20482;-65
2024/01/02 05:46:25;;;;;;;4.47;0.90;;;;;;;4.51;100.00;97136.09;15283870;19;20021;-64
2024/01/02 05:51:49;;;;;;;4.60;0.90;;;;;;;4.50;100.00;97134.41;15285977;19;20029;-65
2024/01/02 05:57:17;;;;;;;2.50;0.80;;;;;;;4.51;100.00;97119.22;15277061;19;20014;-63
2024/01/02 06:02:41;;;;;;;2.30;0.80;;;;;;;4.50;100.00;97129.06;15288015;19;20025;-64
2024/01/02 06:08:06;;;;;;;3.13;1.02;;;;;;;4.49;100.00;97127.41;15293138;19;20014;-63
2024/01/02 06:13:33;;;;;;;2.35;0.80;;;;;;;4.49;100.00;97135.41;15308287;19;20054;-65
2024/01/02 06:18:59;;;;;;;2.03;0.80;;;;;;;4.49;100.00;97138.06;15279058;19;20487;-64
2024/01/02 06:24:23;;;;;;;1.42;0.80;;;;;;;4.46;100.00;97128.56;15289405;19;20025;-66
2024/01/02 06:29:51;;;;;;;1.23;0.70;;;;;;;4.43;100.00;97098.66;15282373;19;20029;-66
2024/01/02 06:35:16;;;;;;;1.98;0.60;;;;;;;4.40;100.00;97107.81;15279963;19;20360;-66
2024/01/02 06:40:47;;;;;;;1.65;0.60;;;;;;;4.36;100.00;97086.97;15282977;19;20405;-64
2024/01/02 06:46:16;;;;;;;1.55;0.60;;;;;;;4.30;100.00;97085.75;15279406;19;20015;-63
2024/01/02 06:51:40;;;;;;;1.17;0.40;;;;;;;4.25;100.00;97080.88;15277667;19;20019;-65
2024/01/02 06:57:06;;;;;;;0.90;0.40;;;;;;;4.21;100.00;97068.84;15271811;19;20014;-64
2024/01/02 07:02:33;;;;;;;0.40;0.40;;;;;;;4.19;100.00;97075.34;15283854;19;20026;-64
2024/01/02 07:07:59;;;;;;;1.08;0.47;;;;;;;4.15;100.00;97069.47;15287481;19;20575;-65
2024/01/02 07:13:23;;;;;;;0.40;0.40;;;;;;;4.11;100.00;97068.09;15275768;19;20369;-64
2024/01/02 07:18:51;;;;;;;0.45;0.35;;;;;;;4.07;100.00;97053.41;15278193;19;20616;-63
2024/01/02 07:24:18;;;;;;;3.20;0.32;;;;;;;4.04;100.00;97043.06;15278442;19;20018;-64
2024/01/02 07:29:43;;;;;;;0.35;0.30;;;;;;;3.99;100.00;97036.38;15274653;19;20085;-63
2024/01/02 07:35:10;;;;;;;1.38;0.45;;;;;;;3.93;100.00;97021.00;15280196;19;20014;-64
2024/01/02 07:40:35;;;;;;;0.80;0.35;;;;;;;3.85;100.00;97020.91;15280884;19;20757;-64
2024/01/02 07:45:59;;;;;;;0.30;0.20;;;;;;;3.79;100.00;97001.06;15276305;19;20025;-63
2024/01/02 07:51:27;;;;;;;2.05;0.35;;;;;;;3.77;100.00;96983.56;15278132;19;20018;-64
2024/01/02 07:56:51;;;;;;;0.52;0.30;;;;;;;3.74;100.00;96973.22;15270746;19;20011;-64
2024/01/02 08:02:20;;;;;;;0.22;0.22;;;;;;;3.72;100.00;96969.84;15279473;19;20019;-64
2024/01/02 08:07:47;;;;;;;0.80;0.40;;;;;;;3.70;100.00;96957.53;15280732;19;20042;-64
2024/01/02 08:13:12;;;;;;;0.30;0.30;;;;;;;3.72;100.00;96948.56;15270204;19;20626;-66
2024/01/02 08:18:41;;;;;;;0.45;0.30;;;;;;;3.72;100.00;96933.44;15274547;19;20090;-65
2024/01/02 08:24:09;;;;;;;0.60;0.30;;;;;;;3.72;100.00;96937.91;15021658;19;5001447;-64
2024/01/02 08:29:33;;;;;;;0.40;0.40;;;;;;;3.70;100.00;96925.56;15274804;19;20018;-63
2024/01/02 08:35:01;;;;;;;0.60;0.40;;;;;;;3.68;100.00;96906.28;15274955;19;20027;-64
2024/01/02 08:40:29;;;;;;;0.20;0.20;;;;;;;3.73;100.00;96879.16;15272052;19;20018;-64
2024/01/02 08:45:54;;;;;;;0.25;0.25;;;;;;;3.76;100.00;96888.66;15274571;19;20101;-63
2024/01/02 08:51:19;;;;;;;0.30;0.30;;;;;;;3.78;100.00;96892.84;15269257;19;20015;-64
2024/01/02 08:56:47;;;;;;;0.30;0.30;;;;;;;3.83;100.00;96871.06;15269204;19;20033;-66
2024/01/02 09:02:12;;;;;;;0.30;0.30;;;;;;;3.89;100.00;96864.25;15271533;19;20032;-64
2024/01/02 09:07:38;;;;;;;0.40;0.30;;;;;;;3.92;100.00;96863.94;15277163;19;20355;-67
2024/01/02 09:13:05;;;;;;;0.20;0.20;;;;;;;3.93;100.00;96852.31;15284522;19;20021;-62
2024/01/02 09:18:30;;;;;;;0.30;0.30;;;;;;;3.98;100.00;96831.38;15282687;19;20486;-63
2024/01/02 09:23:54;;;;;;;0.45;0.30;;;;;;;3.96;100.00;96825.34;15289110;19;20029;-62
2024/01/02 09:29:24;;;;;;;0.30;0.30;;;;;;;3.99;100.00;96833.84;15279092;19;20015;-65
2024/01/02 09:34:49;;;;;;;0.20;0.20;;;;;;;4.06;100.00;96843.91;15282704;19;20973;-63
2024/01/02 09:40:34;;;;;;;0.38;0.38;;;;;;;4.10;100.00;96814.09;15280931;19;20078;-66
2024/01/02 09:46:13;;;;;;;0.40;0.40;;;;;;;4.17;100.00;96811.63;15025546;19;5001656;-63
2024/01/02 09:51:52;;;;;;;0.40;0.30;;;;;;;4.24;100.00;96809.97;15282971;19;20054;-64
2024/01/02 09:57:29;;;;;;;0.30;0.30;;;;;;;4.30;100.00;96804.00;15280084;19;20025;-63
2024/01/02 10:03:15;;;;;;;0.30;0.30;;;;;;;4.38;100.00;96792.53;15266634;19;20021;-64
2024/01/02 10:09:01;;;;;;;0.30;0.30;;;;;;;4.47;100.00;96772.88;15277566;19;20026;-62
2024/01/02 10:14:34;;;;;;;0.35;0.35;;;;;;;4.59;100.00;96770.75;15279260;19;20025;-65
2024/01/02 10:20:17;;;;;;;0.50;0.50;;;;;;;4.69;100.00;96757.25;15284882;19;20025;-63
2024/01/02 10:25:42;;;;;;;0.30;0.30;;;;;;;4.77;100.00;96762.59;15288157;19;20688;-62
2024/01/02 10:31:11;;;;;;;0.22;0.22;;;;;;;4.91;100.00;96762.94;15280143;19;20006;-65
2024/01/02 10:36:43;;;;;;;1.25;0.20;;;;;;;5.04;100.00;96746.41;15259668;19;20027;-63
2024/01/02 10:42:21;;;;;;;0.10;0.10;;;;;;;5.16;100.00;96718.38;15287120;19;20021;-64
2024/01/02 10:48:01;;;;;;;0.20;0.20;;;;;;;5.33;100.00;96713.03;15280716;19;20490;-65
2024/01/02 10:53:39;;;;;;;0.35;0.20;;;;;;;5.47;100.00;96700.78;15276651;19;20798;-67
2024/01/02 10:59:10;;;;;;;0.10;0.10;;;;;;;5.59;100.00;96703.91;15277655;19;20015;-66
2024/01/02 11:04:44;;;;;;;0.10;0.10;;;;;;;5.70;100.00;96692.88;15277351;19;20014;-64
2024/01/02 11:10:16;;;;;;;0.28;0.20;;;;;;;5.78;100.00;96695.50;15273819;19;20023;-63
2024/01/02 11:15:43;;;;;;;0.30;0.20;;;;;;;5.84;100.00;96693.97;15279246;19;20018;-63
2024/01/02 11:21:15;;;;;;;0.20;0.20;;;;;;;5.94;100.00;96688.44;15276785;19;20022;-67
2024/01/02 11:26:44;;;;;;;0.20;0.20;;;;;;;6.02;100.00;96683.06;15270402;19;20351;-63
2024/01/02 11:32:12;;;;;;;0.10;0.10;;;;;;;6.10;100.00;96685.69;15279091;19;20018;-63
2024/01/02 11:37:45;;;;;;;0.10;0.10;;;;;;;6.19;100.00;96683.81;15253506;19;20021;-64
2024/01/02 11:43:25;;;;;;;0.20;0.20;;;;;;;6.32;100.00;96667.16;15282367;19;20019;-65
2024/01/02 11:48:58;;;;;;;0.30;0.20;;;;;;;6.41;100.00;96674.09;15288170;19;20027;-65
2024/01/02 11:54:36;;;;;;;0.52;0.20;;;;;;;6.52;100.00;96664.03;15284754;19;20022;-63
2024/01/02 12:00:09;;;;;;;0.57;0.20;;;;;;;6.61;100.00;96650.38;15291118;19;20014;-60
2024/01/02 12:05:41;;;;;;;0.20;0.20;;;;;;;6.72;100.00;96659.84;15295711;19;20368;-61
2024/01/02 12:11:11;;;;;;;0.10;0.10;;;;;;;6.89;100.00;96648.97;15291227;19;20024;-64
2024/01/02 12:16:42;;;;;;;0.20;0.20;;;;;;;7.02;100.00;96635.78;15293875;19;20359;-63
2024/01/02 12:22:08;;;;;;;0.28;0.20;;;;;;;7.13;100.00;96628.31;15292359;19;20021;-61
2024/01/02 12:27:35;;;;;;;0.10;0.10;;;;;;;7.25;100.00;96621.50;15294352;19;20086;-63
2024/01/02 12:33:13;;;;;;;0.10;0.10;;;;;;;7.38;100.00;96616.31;15291127;19;20018;-61
2024/01/02 12:38:49;;;;;;;0.08;0.08;;;;;;;7.51;100.00;96599.59;15291468;19;20018;-61
2024/01/02 12:44:27;;;;;;;0.00;0.00;;;;;;;7.68;100.00;96594.88;15285212;19;20019;-61
2024/01/02 12:50:02;;;;;;;0.08;0.08;;;;;;;7.84;100.00;96614.41;15290233;19;20392;-62
2024/01/02 12:55:31;;;;;;;0.70;0.15;;;;;;;7.96;100.00;96587.94;15299787;19;20017;-64
2024/01/02 13:00:57;;;;;;;0.00;0.00;;;;;;;8.06;100.00;96580.41;15315452;19;20010;-64
2024/01/02 13:06:25;;;;;;;0.00;0.00;;;;;;;8.13;100.00;96585.84;15325592;19;20010;-63
2024/01/02 13:11:51;;;;;;;0.82;0.10;;;;;;;8.22;100.00;96560.56;15311483;19;20010;-62
2024/01/02 13:17:15;;;;;;;0.00;0.00;;;;;;;8.27;100.00;96554.59;15313493;19;20022;-63
2024/01/02 13:22:42;;;;;;;0.20;0.15;;;;;;;8.33;100.00;96533.19;15316167;19;20043;-64
2024/01/02 13:28:26;;;;;;;0.10;0.10;;;;;;;8.35;100.00;96538.38;15313171;19;20082;-63
2024/01/02 13:33:52;;;;;;;0.30;0.10;;;;;;;8.39;100.00;96536.16;15310814;19;20532;-63
2024/01/02 13:39:39;;;;;;;0.10;0.10;;;;;;;8.41;100.00;96550.19;15313618;19;20059;-62
2024/01/02 13:45:14;;;;;;;0.00;0.00;;;;;;;8.40;100.00;96548.53;15318059;19;20022;-65
2024/01/02 13:50:40;;;;;;;0.10;0.10;;;;;;;8.42;100.00;96562.56;15299999;19;20019;-63
2024/01/02 13:56:08;;;;;;;0.30;0.15;;;;;;;8.46;100.00;96561.16;15290050;19;20010;-63
2024/01/02 14:01:35;;;;;;;0.13;0.13;;;;;;;8.47;100.00;96558.31;15298319;19;20014;-63
2024/01/02 14:07:02;;;;;;;0.20;0.20;;;;;;;8.49;100.00;96563.50;15303335;19;20446;-61
2024/01/02 14:12:38;;;;;;;0.30;0.30;;;;;;;8.51;100.00;96569.50;15299014;19;20021;-66
2024/01/02 14:18:11;;;;;;;0.17;0.17;;;;;;;8.55;100.00;96578.00;15291358;19;20025;-64
2024/01/02 14:23:44;;;;;;;0.30;0.15;;;;;;;8.53;100.00;96567.44;15298515;19;20025;-63
2024/01/02 14:29:15;;;;;;;0.20;0.20;;;;;;;8.51;100.00;96556.09;15298604;19;20023;-64
2024/01/02 14:34:50;;;;;;;0.10;0.10;;;;;;;8.43;100.00;96565.09;15294947;19;20018;-62
2024/01/02 14:40:26;;;;;;;0.10;0.10;;;;;;;8.36;100.00;96568.72;15288513;19;20078;-63
2024/01/02 14:46:09;;;;;;;0.50;0.20;;;;;;;8.29;100.00;96560.63;15300719;19;20018;-66
2024/01/02 14:51:47;;;;;;;1.35;0.15;;;;;;;8.21;100.00;96564.25;15292808;19;20089;-67
2024/01/02 14:57:20;;;;;;;1.85;0.30;;;;;;;8.12;100.00;96570.78;15298103;19;20024;-65
2024/01/02 15:03:22;;;;;;;0.28;0.28;;;;;;;8.06;100.00;96574.19;15296447;19;20054;-64
2024/01/02 15:09:07;;;;;;;0.20;0.20;;;;;;;7.99;100.00;96572.31;15294098;19;20015;-64
2024/01/02 15:14:47;;;;;;;0.10;0.10;;;;;;;7.92;100.00;96579.47;15295037;19;20034;-65
2024/01/02 15:20:22;;;;;;;0.20;0.20;;;;;;;7.83;100.00;96569.84;15287463;19;20038;-65
2024/01/02 15:25:59;;;;;;;0.70;0.30;;;;;;;7.78;100.00;96564.25;15292201;19;20122;-66
2024/01/02 15:31:27;;;;;;;0.80;0.40;;;;;;;7.72;100.00;96563.97;15286280;19;20020;-66
2024/01/02 15:36:58;;;;;;;0.75;0.60;;;;;;;7.69;100.00;96574.25;15286240;19;20021;-65
2024/01/02 15:42:33;;;;;;;0.80;0.80;;;;;;;7.65;100.00;96567.59;15270951;19;20074;-66
2024/01/02 15:48:07;;;;;;;3.72;0.90;;;;;;;7.63;100.00;96566.97;15295733;19;20017;-64
2024/01/02 15:53:39;;;;;;;0.75;0.75;;;;;;;7.56;100.00;96564.22;15296860;19;20020;-64
2024/01/02 15:59:16;;;;;;;0.77;0.63;;;;;;;7.52;100.00;96558.41;15286951;19;20085;-65
2024/01/02 16:04:55;;;;;;;1.85;0.40;;;;;;;7.50;100.00;96548.88;15293338;19;20021;-63
2024/01/02 16:10:39;;;;;;;0.50;0.50;;;;;;;7.47;100.00;96549.25;15292007;19;20582;-65
2024/01/02 16:16:30;;;;;;;0.77;0.43;;;;;;;7.42;100.00;96541.75;15291951;19;20014;-68
2024/01/02 16:22:18;;;;;;;0.77;0.70;;;;;;;7.40;100.00;96539.28;15290035;19;20014;-66
2024/01/02 16:28:07;;;;;;;0.95;0.60;;;;;;;7.38;100.00;96532.47;15294483;19;20466;-64
2024/01/02 16:33:52;;;;;;;0.85;0.65;;;;;;;7.37;100.00;96533.47;15290162;19;20010;-64
2024/01/02 16:39:26;;;;;;;0.60;0.60;;;;;;;7.34;100.00;96523.97;15290905;19;20093;-65
2024/01/02 16:44:52;;;;;;;3.03;0.80;;;;;;;7.34;100.00;96517.78;15287978;19;20016;-65
2024/01/02 16:50:20;;;;;;;2.15;0.80;;;;;;;7.33;100.00;96508.91;15290454;19;20018;-67
2024/01/02 16:55:46;;;;;;;1.00;0.60;;;;;;;7.32;100.00;96504.56;15290425;19;20431;-65
2024/01/02 17:01:13;;;;;;;1.58;0.70;;;;;;;7.31;100.00;96497.56;15285349;19;20029;-66
2024/01/02 17:06:42;;;;;;;1.20;1.15;;;;;;;7.31;100.00;96480.66;15292457;19;20020;-64
2024/01/02 17:12:08;;;;;;;1.95;0.82;;;;;;;7.30;100.00;96476.31;15288755;19;20031;-64
2024/01/02 17:17:33;;;;;;;0.60;0.60;;;;;;;7.31;100.00;96472.59;15291372;19;20019;-65
2024/01/02 17:23:02;;;;;;;0.82;0.50;;;;;;;7.30;100.00;96458.41;15288818;19;20025;-64
2024/01/02 17:28:28;;;;;;;1.85;0.50;;;;;;;7.28;100.00;96448.91;15290612;19;20429;-66
2024/01/02 17:33:55;;;;;;;0.60;0.60;;;;;;;7.27;100.00;96432.00;15293740;19;20018;-66
2024/01/02 17:39:29;;;;;;;1.10;1.00;;;;;;;7.28;100.00;96416.75;15299414;19;20102;-66
2024/01/02 17:45:03;;;;;;;1.08;0.90;;;;;;;7.27;100.00;96404.38;15303753;19;20025;-66
2024/01/02 17:50:29;;;;;;;0.70;0.70;;;;;;;7.27;100.00;96399.84;15303386;19;20025;-65
2024/01/02 17:55:59;;;;;;;3.70;1.90;;;;;;;7.29;100.00;96399.69;15301993;19;20030;-65
2024/01/02 18:01:25;;;;;;;5.10;3.65;;;;;;;7.29;100.00;96389.78;15296479;19;20039;-66
2024/01/02 18:07:05;;;;;;;3.20;2.53;;;;;;;7.31;100.00;96381.53;15299581;19;20070;-65
2024/01/02 18:12:56;;;;;;;1.15;1.05;;;;;;;7.32;100.00;96376.00;15303614;19;20472;-66
2024/01/02 18:18:29;;;;;;;0.50;0.50;;;;;;;7.32;100.00;96369.81;15331189;19;20022;-66
2024/01/02 18:23:57;;;;;;;1.90;0.60;;;;;;;7.32;100.00;96354.59;15311766;19;20085;-66
2024/01/02 18:29:38;;;;;;;0.55;0.55;;;;;;;7.31;100.00;96344.88;15291472;19;20070;-67
2024/01/02 18:35:11;;;;;;;0.30;0.30;;;;;;;7.31;100.00;96336.00;15296136;19;20039;-64
2024/01/02 18:40:46;;;;;;;0.85;0.50;;;;;;;7.31;100.00;96323.47;15290618;19;20017;-65
2024/01/02 18:46:28;;;;;;;0.40;0.40;;;;;;;7.33;100.00;96313.41;15296943;19;20974;-64
2024/01/02 18:52:11;;;;;;;0.30;0.30;;;;;;;7.34;100.00;96315.06;15292874;19;20018;-66
2024/01/02 18:57:37;;;;;;;0.47;0.40;;;;;;;7.36;100.00;96310.31;15295725;19;20022;-67
2024/01/02 19:03:11;;;;;;;0.57;0.57;;;;;;;7.37;100.00;96303.13;15274767;19;20025;-56
2024/01/02 19:08:46;;;;;;;1.65;0.60;;;;;;;7.40;100.00;96292.03;15295236;19;20050;-55
2024/01/02 19:14:12;;;;;;;0.45;0.45;;;;;;;7.42;100.00;96281.09;15297014;19;20023;-54
2024/01/02 19:19:42;;;;;;;0.75;0.50;;;;;;;7.45;100.00;96268.16;15287341;19;20025;-55
2024/01/02 19:25:08;;;;;;;0.70;0.70;;;;;;;7.48;100.00;96256.19;15297387;19;20022;-57
2024/01/02 19:30:34;;;;;;;0.60;0.60;;;;;;;7.49;100.00;96248.00;15294856;19;20028;-56
2024/01/02 19:36:02;;;;;;;0.63;0.60;;;;;;;7.50;100.00;96243.44;15291453;19;20014;-53
2024/01/02 19:41:26;;;;;;;0.35;0.35;;;;;;;7.50;100.00;96240.75;15283836;19;20024;-53
2024/01/02 19:46:52;;;;;;;0.20;0.20;;;;;;;7.50;100.00;96230.91;15293341;19;20086;-59
2024/01/02 19:52:19;;;;;;;3.08;0.20;;;;;;;7.51;100.00;96234.38;15288736;19;20078;-57
2024/01/02 19:57:44;;;;;;;2.05;0.20;;;;;;;7.56;100.00;96231.97;15289337;19;20094;-54
2024/01/02 20:03:26;;;;;;;0.40;0.30;;;;;;;7.62;100.00;96236.53;15289618;19;20028;-57
2024/01/02 20:08:53;;;;;;;0.40;0.20;;;;;;;7.65;100.00;96233.47;15288004;19;20375;-55
2024/01/02 20:14:50;;;;;;;0.30;0.30;;;;;;;7.65;100.00;96220.06;15289201;19;20014;-56
2024/01/02 20:21:08;;;;;;;0.38;0.32;;;;;;;7.66;100.00;96211.00;15283690;19;20022;-56
2024/01/02 20:26:36;;;;;;;0.28;0.20;;;;;;;7.67;100.00;96201.09;15283240;19;20018;-55
2024/01/02 20:32:01;;;;;;;0.95;0.30;;;;;;;7.66;100.00;96197.59;15285356;19;20031;-54
2024/01/02 20:37:37;;;;;;;0.30;0.30;;;;;;;7.67;100.00;96196.56;15262515;19;20021;-55
2024/01/02 20:43:31;;;;;;;0.20;0.20;;;;;;;7.66;100.00;96194.91;15279903;19;20020;-57
2024/01/02 20:49:07;;;;;;;0.40;0.30;;;;;;;7.68;100.00;96192.03;15284531;19;20586;-57
2024/01/02 20:54:32;;;;;;;1.10;0.57;;;;;;;7.70;100.00;96189.97;15291647;19;20022;-54
2024/01/02 21:00:00;;;;;;;0.40;0.32;;;;;;;7.71;100.00;96171.00;15285444;19;20042;-53
2024/01/02 21:06:21;;;;;;;0.52;0.50;;;;;;;7.74;100.00;96164.44;15285641;19;20024;-56
2024/01/02 21:11:45;;;;;;;0.40;0.40;;;;;;;7.75;100.00;96165.25;15285598;19;20082;-53
2024/01/02 21:17:17;;;;;;;1.10;0.30;;;;;;;7.75;100.00;96174.16;15284382;19;20397;-57
2024/01/02 21:23:04;;;;;;;0.50;0.30;;;;;;;7.77;100.00;96160.53;15282018;19;20363;-57
2024/01/02 21:28:28;;;;;;;0.10;0.10;;;;;;;7.77;100.00;96155.19;15280284;19;20026;-56
2024/01/02 21:33:58;;;;;;;0.17;0.10;;;;;;;7.79;100.00;96148.59;15275079;19;20920;-57
2024/01/02 21:39:25;;;;;;;0.20;0.20;;;;;;;7.81;100.00;96164.47;15285116;19;20014;-56
2024/01/02 21:44:50;;;;;;;0.20;0.13;;;;;;;7.83;100.00;96170.44;15288758;19;20342;-56
2024/01/02 21:50:55;;;;;;;1.95;0.10;;;;;;;7.90;100.00;96163.28;15281615;19;20027;-58
2024/01/02 21:56:29;;;;;;;0.25;0.10;;;;;;;7.91;100.00;96164.09;15288259;19;20028;-58
2024/01/02 22:02:01;;;;;;;0.75;0.10;;;;;;;7.93;100.00;96159.38;15284317;19;20023;-58
2024/01/02 22:08:04;;;;;;;0.00;0.00;;;;;;;7.93;100.00;96184.34;15285136;19;20046;-59
2024/01/02 22:13:52;;;;;;;3.13;0.10;;;;;;;7.96;100.00;96162.47;15286871;19;20032;-59
2024/01/02 22:19:47;;;;;;;0.10;0.10;;;;;;;7.99;100.00;96163.94;15294831;19;20014;-58
2024/01/02 22:25:39;;;;;;;0.10;0.10;;;;;;;8.06;100.00;96155.88;15296998;19;20018;-59
2024/01/02 22:31:21;;;;;;;0.10;0.00;;;;;;;8.15;100.00;96155.50;15299988;19;20024;-59
2024/01/02 22:36:45;;;;;;;0.10;0.10;;;;;;;8.22;100.00;96163.59;15297875;19;20024;-59
2024/01/02 22:42:12;;;;;;;0.00;0.00;;;;;;;8.28;100.00;96132.44;15297172;19;20014;-58
2024/01/02 22:47:37;;;;;;;0.05;0.03;;;;;;;8.34;100.00;96131.63;15299396;19;20017;-58
2024/01/02 22:53:02;;;;;;;0.00;0.00;;;;;;;8.38;100.00;96140.91;15294838;19;20027;-59
2024/01/02 22:58:30;;;;;;;0.00;0.00;;;;;;;8.37;100.00;96108.94;15294900;19;20035;-58
2024/01/02 23:04:02;;;;;;;0.00;0.00;;;;;;;8.39;100.00;96106.88;15299415;19;20026;-58
2024/01/02 23:10:05;;;;;;;0.00;0.00;;;;;;;8.38;100.00;96098.00;15296458;19;20010;-58
2024/01/02 23:16:16;;;;;;;0.68;0.08;;;;;;;8.45;100.00;96089.94;15297100;19;20022;-58
2024/01/02 23:21:42;;;;;;;0.00;0.00;;;;;;;8.45;100.00;96085.44;15294209;19;20023;-59
2024/01/02 23:27:11;;;;;;;1.45;0.00;;;;;;;8.44;100.00;96099.03;15290972;19;20045;-58
2024/01/02 23:32:39;;;;;;;0.20;0.03;;;;;;;8.39;100.00;96101.50;15291895;19;20343;-59
2024/01/02 23:38:03;;;;;;;0.50;0.10;;;;;;;8.39;100.00;96099.66;15040429;19;5000699;-60
2024/01/02 23:43:28;;;;;;;0.47;0.10;;;;;;;8.48;100.00;96103.00;15296839;19;20018;-58
2024/01/02 23:48:55;;;;;;;0.17;0.10;;;;;;;8.51;100.00;96110.66;15296017;19;20022;-60
2024/01/02 23:54:44;;;;;;;0.47;0.10;;;;;;;8.54;100.00;96104.84;15295290;19;20101;-60
